createdAt,value
2023-04-13T00:01:49.808Z,78.90
2023-04-13T00:06:03.426Z,79.67
2023-04-13T00:10:21.574Z,79.23
2023-04-13T00:14:34.344Z,79.56
2023-04-13T00:18:46.901Z,79.35
2023-04-13T00:22:59.339Z,76.12
2023-04-13T00:27:12.407Z,76.61
2023-04-13T00:31:25.139Z,77.41
2023-04-13T00:35:37.821Z,77.97
2023-04-13T00:39:50.554Z,78.55
2023-04-13T00:44:03.056Z,78.37
2023-04-13T00:48:16.240Z,78.02
2023-04-13T00:52:29.702Z,77.58
2023-04-13T00:56:43.162Z,78.09
2023-04-13T01:00:55.743Z,78.61
2023-04-13T01:05:09.026Z,78.24
2023-04-13T01:09:35.505Z,77.46
2023-04-13T01:14:02.136Z,77.05
2023-04-13T01:18:17.713Z,77.00
2023-04-13T01:22:32.325Z,75.35
2023-04-13T01:27:16.446Z,73.14
2023-04-13T01:31:30.171Z,74.55
2023-04-13T01:35:43.705Z,74.89
2023-04-13T01:40:00.601Z,74.92
2023-04-13T01:44:27.796Z,75.59
2023-04-13T01:48:54.395Z,75.72
2023-04-13T01:53:30.941Z,76.21
2023-04-13T01:57:47.516Z,75.74
2023-04-13T02:02:00.793Z,76.48
2023-04-13T02:06:14.137Z,76.94
2023-04-13T02:10:28.058Z,77.32
2023-04-13T02:14:43.030Z,78.07
2023-04-13T02:19:00.527Z,77.96
2023-04-13T02:23:18.160Z,77.53
2023-04-13T02:27:33.164Z,77.37
2023-04-13T02:31:46.428Z,77.21
2023-04-13T02:36:00.506Z,77.44
2023-04-13T02:40:14.245Z,76.52
2023-04-13T02:44:27.450Z,76.50
2023-04-13T02:48:43.713Z,76.50
2023-04-13T02:52:56.409Z,76.00
2023-04-13T02:57:13.648Z,76.08
2023-04-13T03:01:29.748Z,76.41
2023-04-13T03:05:43.721Z,74.30
2023-04-13T03:10:05.855Z,74.67
2023-04-13T03:14:24.189Z,75.20
2023-04-13T03:18:42.116Z,74.53
2023-04-13T03:22:56.406Z,74.22
2023-04-13T03:27:09.088Z,73.44
2023-04-13T03:31:28.269Z,73.13
2023-04-13T03:35:41.329Z,73.21
2023-04-13T03:40:01.819Z,73.65
2023-04-13T03:44:18.989Z,71.96
2023-04-13T03:48:31.574Z,69.42
2023-04-13T03:52:46.628Z,69.52
2023-04-13T03:57:00.824Z,70.52
2023-04-13T04:01:15.820Z,71.42
2023-04-13T04:05:34.792Z,69.49
2023-04-13T04:09:50.576Z,69.44
2023-04-13T04:14:04.956Z,70.03
2023-04-13T04:18:18.239Z,71.21
2023-04-13T04:22:34.983Z,71.64
2023-04-13T04:26:50.495Z,71.93
2023-04-13T04:31:05.314Z,71.67
2023-04-13T04:35:18.523Z,68.20
2023-04-13T04:39:44.723Z,67.43
2023-04-13T04:44:03.606Z,65.73
2023-04-13T04:48:25.206Z,65.26
2023-04-13T04:52:39.355Z,65.41
2023-04-13T04:56:52.705Z,63.78
2023-04-13T05:01:07.180Z,63.71
2023-04-13T05:05:22.954Z,62.41
2023-04-13T05:09:37.529Z,61.52
2023-04-13T05:13:50.420Z,61.61
2023-04-13T05:18:06.528Z,59.68
2023-04-13T05:22:19.932Z,54.98
2023-04-13T05:26:42.228Z,57.99
2023-04-13T05:31:02.640Z,56.88
2023-04-13T05:35:16.754Z,55.95
2023-04-13T05:39:30.146Z,54.26
2023-04-13T05:43:46.470Z,53.10
2023-04-13T05:47:59.427Z,54.46
2023-04-13T05:52:13.171Z,54.60
2023-04-13T05:56:32.776Z,54.85
2023-04-13T06:00:45.808Z,54.45
2023-04-13T06:05:02.503Z,52.64
2023-04-13T06:09:16.025Z,52.71
2023-04-13T06:13:32.085Z,52.68
2023-04-13T06:17:45.988Z,51.67
2023-04-13T06:21:58.896Z,50.72
2023-04-13T06:26:12.252Z,49.13
2023-04-13T06:30:38.990Z,48.44
2023-04-13T06:34:55.722Z,48.34
2023-04-13T06:39:10.687Z,46.85
2023-04-13T06:43:29.585Z,46.13
2023-04-13T06:48:01.270Z,44.16
2023-04-13T06:52:16.775Z,43.27
2023-04-13T06:56:29.422Z,42.61
2023-04-13T07:00:41.999Z,40.29
2023-04-13T07:04:54.733Z,39.44
2023-04-13T07:09:09.187Z,39.73
2023-04-13T07:13:22.200Z,38.09
2023-04-13T07:17:35.197Z,37.01
2023-04-13T07:21:50.258Z,36.94
2023-04-13T07:26:04.010Z,36.19
2023-04-13T07:30:16.724Z,36.28
2023-04-13T07:34:32.126Z,35.67
2023-04-13T07:38:45.559Z,34.87
2023-04-13T07:43:01.396Z,34.93
2023-04-13T07:47:17.037Z,35.41
2023-04-13T07:51:32.692Z,34.23
2023-04-13T07:55:45.678Z,33.20
2023-04-13T07:59:59.296Z,32.93
2023-04-13T08:04:12.517Z,33.01
2023-04-13T08:08:27.180Z,32.96
2023-04-13T08:12:40.056Z,33.06
2023-04-13T08:16:52.598Z,32.74
2023-04-13T08:21:12.383Z,32.06
2023-04-13T08:25:26.909Z,32.80
2023-04-13T08:29:39.432Z,32.06
2023-04-13T08:33:52.248Z,32.10
2023-04-13T08:38:05.162Z,31.47
2023-04-13T08:42:21.061Z,31.68
2023-04-13T08:46:37.271Z,30.72
2023-04-13T08:50:58.728Z,30.67
2023-04-13T08:55:16.139Z,31.79
2023-04-13T08:59:31.450Z,30.36
2023-04-13T09:03:55.257Z,30.71
2023-04-13T09:08:13.909Z,30.41
2023-04-13T09:12:32.460Z,30.68
2023-04-13T09:16:45.293Z,31.80
2023-04-13T09:21:10.858Z,31.10
2023-04-13T09:25:28.826Z,29.51
2023-04-13T09:29:49.964Z,30.75
2023-04-13T09:34:02.557Z,30.64
2023-04-13T09:38:16.632Z,30.72
2023-04-13T09:42:29.170Z,32.04
2023-04-13T09:46:41.934Z,28.90
2023-04-13T09:51:01.989Z,32.41
2023-04-13T09:55:20.915Z,31.99
2023-04-13T09:59:34.478Z,31.39
2023-04-13T10:03:47.423Z,32.81
2023-04-13T10:08:00.219Z,31.23
2023-04-13T10:12:14.095Z,28.97
2023-04-13T10:16:41.253Z,29.98
2023-04-13T10:20:54.935Z,26.52
2023-04-13T10:25:09.547Z,28.06
2023-04-13T10:29:31.376Z,29.64
2023-04-13T10:33:51.202Z,30.21
2023-04-13T10:38:04.277Z,29.34
2023-04-13T10:42:18.051Z,31.06
2023-04-13T10:46:31.699Z,32.29
2023-04-13T10:50:44.244Z,34.00
2023-04-13T10:54:57.585Z,30.61
2023-04-13T10:59:09.980Z,30.68
2023-04-13T11:03:22.752Z,29.66
2023-04-13T11:07:38.993Z,30.53
2023-04-13T11:11:54.331Z,32.42
2023-04-13T11:16:07.256Z,30.66
2023-04-13T11:20:20.185Z,32.14
2023-04-13T11:24:34.389Z,29.66
2023-04-13T11:28:47.336Z,31.04
2023-04-13T11:33:01.281Z,29.40
2023-04-13T11:37:13.733Z,31.42
2023-04-13T11:41:29.200Z,30.99
2023-04-13T11:45:43.683Z,29.73
2023-04-13T11:49:56.453Z,27.67
2023-04-13T11:54:09.505Z,26.92
2023-04-13T11:58:22.145Z,30.77
2023-04-13T12:02:43.158Z,30.41
2023-04-13T12:07:14.181Z,31.00
2023-04-13T12:16:05.018Z,30.79
2023-04-13T12:20:23.528Z,31.41
2023-04-13T12:24:38.643Z,31.63
2023-04-13T12:28:59.573Z,30.09
2023-04-13T12:33:12.571Z,31.38
2023-04-13T12:37:25.135Z,31.91
2023-04-13T12:41:37.478Z,32.01
2023-04-13T12:45:50.043Z,32.58
2023-04-13T12:50:07.114Z,32.85
2023-04-13T12:54:19.738Z,31.42
2023-04-13T12:58:32.394Z,29.55
2023-04-13T13:02:44.993Z,30.37
2023-04-13T13:06:57.437Z,31.29
2023-04-13T13:11:09.878Z,30.08
2023-04-13T13:15:22.492Z,30.07
2023-04-13T13:19:34.969Z,29.98
2023-04-13T13:23:47.361Z,29.47
2023-04-13T13:32:19.993Z,31.93
2023-04-13T13:36:32.744Z,30.68
2023-04-13T13:40:46.636Z,29.38
2023-04-13T13:44:59.088Z,29.96
2023-04-13T13:49:12.209Z,31.01
2023-04-13T13:53:47.131Z,30.65
2023-04-13T13:57:59.638Z,31.44
2023-04-13T14:02:12.104Z,29.18
2023-04-13T14:06:24.480Z,30.37
2023-04-13T14:10:39.739Z,29.76
2023-04-13T14:14:52.574Z,27.79
2023-04-13T14:19:04.991Z,29.36
2023-04-13T14:23:18.390Z,30.04
2023-04-13T14:27:30.862Z,30.10
2023-04-13T14:31:43.334Z,30.30
2023-04-13T14:35:55.918Z,30.50
2023-04-13T14:40:22.051Z,31.47
2023-04-13T14:44:34.984Z,31.13
2023-04-13T14:48:47.491Z,32.16
2023-04-13T14:52:59.945Z,31.62
2023-04-13T14:57:12.374Z,31.94
2023-04-13T15:01:25.180Z,31.21
2023-04-13T15:05:50.067Z,31.09
2023-04-13T15:10:04.788Z,31.20
2023-04-13T15:14:17.258Z,29.85
2023-04-13T15:18:29.610Z,30.52
2023-04-13T15:22:42.106Z,31.69
2023-04-13T15:26:54.647Z,31.57
2023-04-13T15:31:06.981Z,32.78
2023-04-13T15:35:19.462Z,34.73
2023-04-13T15:39:31.960Z,40.86
2023-04-13T15:43:44.432Z,46.25
2023-04-13T15:47:57.538Z,46.92
2023-04-13T15:52:10.053Z,48.74
2023-04-13T15:56:22.908Z,49.11
2023-04-13T16:00:35.647Z,50.07
2023-04-13T16:04:48.280Z,51.63
2023-04-13T16:09:01.139Z,53.51
2023-04-13T16:13:19.790Z,54.29
2023-04-13T16:17:32.722Z,54.82
2023-04-13T16:21:51.210Z,55.09
2023-04-13T16:26:03.842Z,55.68
2023-04-13T16:30:18.534Z,56.03
2023-04-13T16:34:31.000Z,56.42
2023-04-13T16:38:43.368Z,56.69
2023-04-13T16:42:55.808Z,57.11
2023-04-13T16:47:08.323Z,57.37
2023-04-13T16:51:21.569Z,57.53
2023-04-13T16:55:34.044Z,57.39
2023-04-13T16:59:47.386Z,57.26
2023-04-13T17:04:00.026Z,57.13
2023-04-13T17:08:12.896Z,56.58
2023-04-13T17:12:26.561Z,56.18
2023-04-13T17:16:38.997Z,57.01
2023-04-13T17:20:55.582Z,57.47
2023-04-13T17:25:08.641Z,57.71
2023-04-13T17:29:22.092Z,57.80
2023-04-13T17:33:34.552Z,58.04
2023-04-13T17:37:47.265Z,58.18
2023-04-13T17:41:59.686Z,58.81
2023-04-13T17:46:12.843Z,58.50
2023-04-13T17:50:25.192Z,59.45
2023-04-13T17:54:38.173Z,59.18
2023-04-13T17:58:50.804Z,59.62
2023-04-13T18:03:05.712Z,59.54
2023-04-13T18:07:18.691Z,59.44
2023-04-13T18:11:31.404Z,59.74
2023-04-13T18:15:47.692Z,60.16
2023-04-13T18:20:00.309Z,59.87
2023-04-13T18:24:12.877Z,59.78
2023-04-13T18:28:25.459Z,59.74
2023-04-13T18:32:37.981Z,60.05
2023-04-13T18:36:50.584Z,60.19
2023-04-13T18:41:04.597Z,60.44
2023-04-13T18:45:17.509Z,61.23
2023-04-13T18:49:29.940Z,61.77
2023-04-13T18:53:42.618Z,62.14
2023-04-13T18:57:55.752Z,62.19
2023-04-13T19:02:09.196Z,62.20
2023-04-13T19:06:21.676Z,61.98
2023-04-13T19:10:34.255Z,62.72
2023-04-13T19:14:47.156Z,62.83
2023-04-13T19:18:59.536Z,63.38
2023-04-13T19:23:12.217Z,63.78
2023-04-13T19:27:24.809Z,63.87
2023-04-13T19:31:38.340Z,62.47
2023-04-13T19:35:50.856Z,62.72
2023-04-13T19:40:08.191Z,63.83
2023-04-13T19:44:20.964Z,63.79
2023-04-13T19:48:33.494Z,64.89
2023-04-13T19:52:47.755Z,64.53
2023-04-13T19:57:00.227Z,65.36
2023-04-13T20:01:13.906Z,65.92
2023-04-13T20:05:26.441Z,67.56
2023-04-13T20:09:39.078Z,68.10
2023-04-13T20:13:51.794Z,68.86
2023-04-13T20:18:07.530Z,67.89
2023-04-13T20:22:22.022Z,68.48
2023-04-13T20:26:34.907Z,67.75
2023-04-13T20:30:47.843Z,68.08
2023-04-13T20:35:00.362Z,67.92
2023-04-13T20:39:14.000Z,67.86
2023-04-13T20:43:26.499Z,67.13
2023-04-13T20:47:42.577Z,66.67
2023-04-13T20:51:56.107Z,66.41
2023-04-13T20:56:09.498Z,66.51
2023-04-13T21:00:23.724Z,66.84
2023-04-13T21:04:36.648Z,67.51
2023-04-13T21:08:49.191Z,66.93
2023-04-13T21:13:02.009Z,67.57
2023-04-13T21:17:14.424Z,65.22
2023-04-13T21:21:27.112Z,63.57
2023-04-13T21:25:40.395Z,62.32
2023-04-13T21:29:52.812Z,59.89
2023-04-13T21:34:05.133Z,59.09
2023-04-13T21:38:17.589Z,56.81
2023-04-13T21:42:30.052Z,55.43
2023-04-13T21:46:42.589Z,54.71
2023-04-13T21:50:55.328Z,57.00
2023-04-13T21:55:08.109Z,50.55
2023-04-13T21:59:22.750Z,48.80
2023-04-13T22:03:39.166Z,49.20
2023-04-13T22:07:52.188Z,48.64
2023-04-13T22:12:04.767Z,50.38
2023-04-13T22:16:17.407Z,45.95
2023-04-13T22:20:29.710Z,48.69
2023-04-13T22:24:42.168Z,47.66
2023-04-13T22:28:54.582Z,48.23
2023-04-13T22:33:07.269Z,48.35
2023-04-13T22:37:19.810Z,47.66
2023-04-13T22:41:32.304Z,46.24
2023-04-13T22:45:44.740Z,46.65
2023-04-13T22:50:00.186Z,47.59
2023-04-13T22:54:12.635Z,46.89
2023-04-13T22:58:25.229Z,45.83
2023-04-13T23:02:37.893Z,47.56
2023-04-13T23:06:50.486Z,46.50
2023-04-13T23:11:09.784Z,47.95
2023-04-13T23:15:22.187Z,50.10
2023-04-13T23:19:35.367Z,51.24
2023-04-13T23:23:48.163Z,51.58
2023-04-13T23:28:00.710Z,51.75
2023-04-13T23:32:13.534Z,51.90
2023-04-13T23:36:26.812Z,51.89
2023-04-13T23:40:39.282Z,51.34
2023-04-13T23:44:51.645Z,50.91
2023-04-13T23:49:04.082Z,48.48
2023-04-13T23:53:16.890Z,43.39
2023-04-13T23:57:34.299Z,38.74
